createdAt,value
2019-03-23T00:01:56.848Z,25.03
2019-03-23T00:04:03.414Z,25.43
2019-03-23T00:06:09.759Z,24.43
2019-03-23T00:08:17.715Z,24.90
2019-03-23T00:10:24.150Z,24.33
2019-03-23T00:12:30.501Z,25.03
2019-03-23T00:14:37.163Z,24.37
2019-03-23T00:16:43.551Z,25.53
2019-03-23T00:18:52.658Z,26.63
2019-03-23T00:21:00.036Z,25.40
2019-03-23T00:23:06.628Z,23.93
2019-03-23T00:25:14.285Z,26.37
2019-03-23T00:27:21.078Z,26.10
2019-03-23T00:29:27.657Z,26.87
2019-03-23T00:31:36.163Z,25.27
2019-03-23T00:33:42.939Z,26.80
2019-03-23T00:35:49.603Z,26.20
2019-03-23T00:37:56.073Z,27.10
2019-03-23T00:40:02.450Z,29.50
2019-03-23T00:42:09.229Z,27.53
2019-03-23T00:44:15.786Z,29.37
2019-03-23T00:46:22.266Z,27.23
2019-03-23T00:48:30.340Z,26.13
2019-03-23T00:50:36.967Z,26.80
2019-03-23T00:52:43.788Z,26.63
2019-03-23T00:54:50.141Z,26.67
2019-03-23T00:56:56.523Z,27.60
2019-03-23T00:59:04.614Z,27.73
2019-03-23T01:01:12.422Z,26.77
2019-03-23T01:03:20.712Z,26.17
2019-03-23T01:05:28.729Z,28.33
2019-03-23T01:07:35.091Z,26.83
2019-03-23T01:09:41.644Z,28.97
2019-03-23T01:11:48.004Z,28.03
2019-03-23T01:13:55.805Z,26.97
2019-03-23T01:16:02.163Z,27.73
2019-03-23T01:18:08.529Z,26.57
2019-03-23T01:20:15.725Z,28.57
2019-03-23T01:22:22.077Z,28.13
2019-03-23T01:24:28.844Z,27.37
2019-03-23T01:26:35.209Z,30.43
2019-03-23T01:28:43.197Z,29.00
2019-03-23T01:30:51.395Z,26.83
2019-03-23T01:32:57.983Z,26.60
2019-03-23T01:35:05.375Z,28.77
2019-03-23T01:37:11.741Z,27.67
2019-03-23T01:39:18.183Z,26.50
2019-03-23T01:41:24.881Z,28.83
2019-03-23T01:43:31.321Z,28.33
2019-03-23T01:45:37.697Z,28.13
2019-03-23T01:47:44.059Z,28.70
2019-03-23T01:49:51.633Z,28.60
2019-03-23T01:51:58.285Z,31.33
2019-03-23T01:54:04.883Z,27.23
2019-03-23T01:56:11.553Z,28.40
2019-03-23T01:58:18.226Z,28.67
2019-03-23T02:00:24.667Z,28.53
2019-03-23T02:02:31.368Z,29.27
2019-03-23T02:04:37.731Z,30.00
2019-03-23T02:06:44.276Z,30.03
2019-03-23T02:08:50.648Z,28.00
2019-03-23T02:10:58.852Z,32.83
2019-03-23T02:13:05.530Z,30.37
2019-03-23T02:15:14.079Z,32.47
2019-03-23T02:17:20.412Z,33.50
2019-03-23T02:19:27.072Z,32.30
2019-03-23T02:21:35.177Z,32.47
2019-03-23T02:23:43.382Z,32.33
2019-03-23T02:25:49.834Z,31.40
2019-03-23T02:27:56.411Z,32.37
2019-03-23T02:30:02.978Z,34.53
2019-03-23T02:32:09.395Z,31.67
2019-03-23T02:34:16.611Z,31.53
2019-03-23T02:36:23.006Z,32.97
2019-03-23T02:38:29.363Z,35.60
2019-03-23T02:40:35.704Z,33.47
2019-03-23T02:42:42.286Z,31.97
2019-03-23T02:44:50.600Z,31.60
2019-03-23T02:46:57.055Z,32.47
2019-03-23T02:49:03.625Z,34.63
2019-03-23T02:51:11.045Z,35.00
2019-03-23T02:53:17.452Z,33.17
2019-03-23T02:55:24.363Z,35.07
2019-03-23T02:57:30.814Z,32.93
2019-03-23T02:59:37.697Z,33.17
2019-03-23T03:01:44.054Z,32.43
2019-03-23T03:03:50.574Z,32.53
2019-03-23T03:05:58.411Z,31.43
2019-03-23T03:08:05.005Z,29.87
2019-03-23T03:10:14.889Z,28.63
2019-03-23T03:12:21.497Z,28.03
2019-03-23T03:14:28.367Z,26.27
2019-03-23T03:16:35.052Z,28.90
2019-03-23T03:18:41.559Z,28.23
2019-03-23T03:20:47.965Z,28.43
2019-03-23T03:22:56.073Z,26.90
2019-03-23T03:25:02.445Z,26.87
2019-03-23T03:27:08.912Z,28.30
2019-03-23T03:29:15.560Z,26.47
2019-03-23T03:31:21.967Z,25.53
2019-03-23T03:33:28.417Z,29.17
2019-03-23T03:35:35.062Z,27.17
2019-03-23T03:37:55.380Z,26.57
2019-03-23T03:39:50.738Z,25.97
2019-03-23T03:41:57.574Z,26.30
2019-03-23T03:44:04.530Z,27.07
2019-03-23T03:46:11.361Z,25.10
2019-03-23T03:48:18.108Z,26.73
2019-03-23T03:50:26.157Z,27.00
2019-03-23T03:52:34.077Z,25.87
2019-03-23T03:54:40.904Z,25.67
2019-03-23T03:56:47.750Z,26.03
2019-03-23T03:58:54.823Z,27.60
2019-03-23T04:01:01.355Z,26.73
2019-03-23T04:03:07.735Z,26.80
2019-03-23T04:05:14.689Z,25.87
2019-03-23T04:07:21.566Z,25.60
2019-03-23T04:09:31.730Z,26.77
2019-03-23T04:11:38.464Z,26.27
2019-03-23T04:13:45.157Z,24.50
2019-03-23T04:15:52.036Z,27.07
2019-03-23T04:17:58.914Z,23.50
2019-03-23T04:20:08.175Z,26.20
2019-03-23T04:22:14.999Z,23.90
2019-03-23T04:24:21.460Z,24.97
2019-03-23T04:26:28.137Z,24.60
2019-03-23T04:28:34.680Z,23.47
2019-03-23T04:30:43.123Z,22.93
2019-03-23T04:32:49.896Z,23.53
2019-03-23T04:34:56.770Z,22.53
2019-03-23T04:37:03.365Z,22.67
2019-03-23T04:39:10.214Z,21.73
2019-03-23T04:41:16.589Z,21.97
2019-03-23T04:43:25.796Z,21.47
2019-03-23T04:45:32.163Z,22.47
2019-03-23T04:47:39.337Z,22.53
2019-03-23T04:49:45.708Z,23.03
2019-03-23T04:54:00.279Z,21.47
2019-03-23T04:56:07.255Z,23.43
2019-03-23T04:58:13.927Z,20.90
2019-03-23T05:00:21.546Z,23.20
2019-03-23T05:02:28.837Z,22.30
2019-03-23T05:04:35.479Z,22.97
2019-03-23T05:06:42.634Z,23.77
2019-03-23T05:08:49.217Z,19.90
2019-03-23T05:10:55.672Z,22.33
2019-03-23T05:13:03.738Z,25.57
2019-03-23T05:15:11.376Z,23.60
2019-03-23T05:17:18.034Z,23.40
2019-03-23T05:19:24.625Z,22.87
2019-03-23T05:21:31.282Z,22.20
2019-03-23T05:23:39.693Z,23.23
2019-03-23T05:25:46.255Z,21.83
2019-03-23T05:27:52.624Z,23.10
2019-03-23T05:29:59.277Z,23.13
2019-03-23T05:32:06.887Z,23.03
2019-03-23T05:34:13.557Z,26.00
2019-03-23T05:36:20.019Z,24.70
2019-03-23T05:38:26.786Z,22.83
2019-03-23T05:40:33.133Z,23.87
2019-03-23T05:42:39.628Z,23.27
2019-03-23T05:44:46.189Z,21.83
2019-03-23T05:46:54.346Z,22.20
2019-03-23T05:49:00.740Z,21.33
2019-03-23T05:51:08.657Z,21.77
2019-03-23T05:53:15.194Z,20.73
2019-03-23T05:55:22.198Z,20.77
2019-03-23T05:57:28.975Z,20.83
2019-03-23T05:59:35.621Z,20.60
2019-03-23T06:01:42.030Z,19.87
2019-03-23T06:03:49.572Z,20.90
2019-03-23T06:05:57.183Z,19.57
2019-03-23T06:08:03.547Z,20.33
2019-03-23T06:10:10.330Z,19.27
2019-03-23T06:12:18.417Z,19.20
2019-03-23T06:14:24.851Z,19.07
2019-03-23T06:16:33.499Z,17.63
2019-03-23T06:18:39.874Z,19.23
2019-03-23T06:20:46.504Z,18.03
2019-03-23T06:22:54.333Z,20.20
2019-03-23T06:25:01.131Z,19.50
2019-03-23T06:27:08.065Z,18.67
2019-03-23T06:29:14.765Z,17.97
2019-03-23T06:31:22.369Z,17.67
2019-03-23T06:33:28.971Z,17.93
2019-03-23T06:35:35.238Z,18.20
2019-03-23T06:37:41.941Z,17.03
2019-03-23T06:39:48.498Z,17.57
2019-03-23T06:41:55.068Z,19.93
2019-03-23T06:44:01.833Z,20.10
2019-03-23T06:46:09.828Z,20.53
2019-03-23T06:48:16.508Z,19.17
2019-03-23T06:50:22.978Z,19.57
2019-03-23T06:52:31.007Z,17.67
2019-03-23T06:54:37.787Z,19.23
2019-03-23T06:56:44.425Z,20.20
2019-03-23T06:58:52.648Z,18.10
2019-03-23T07:00:59.607Z,18.27
2019-03-23T07:03:06.702Z,18.47
2019-03-23T07:05:13.876Z,18.93
2019-03-23T07:07:21.779Z,20.07
2019-03-23T07:09:28.434Z,17.53
2019-03-23T07:11:35.001Z,20.07
2019-03-23T07:13:42.606Z,18.00
2019-03-23T07:15:49.356Z,19.97
2019-03-23T07:17:55.934Z,18.03
2019-03-23T07:20:04.232Z,17.67
2019-03-23T07:22:11.725Z,16.60
2019-03-23T07:24:18.303Z,16.23
2019-03-23T07:26:24.852Z,18.10
2019-03-23T07:28:31.543Z,17.00
2019-03-23T07:30:39.943Z,16.13
2019-03-23T07:32:48.874Z,17.63
2019-03-23T07:34:55.542Z,33.43
2019-03-23T07:37:03.447Z,27.77
2019-03-23T07:39:27.305Z,24.97
2019-03-23T07:41:29.986Z,20.90
2019-03-23T07:43:36.763Z,21.63
2019-03-23T07:45:43.339Z,18.73
2019-03-23T07:47:50.203Z,30.23
2019-03-23T07:49:56.680Z,20.07
2019-03-23T07:52:03.431Z,25.47
2019-03-23T07:54:09.804Z,18.57
2019-03-23T07:56:17.803Z,18.10
2019-03-23T07:58:24.574Z,16.53
2019-03-23T08:00:33.195Z,16.93
2019-03-23T08:02:40.163Z,23.50
2019-03-23T08:04:48.575Z,16.43
2019-03-23T08:06:57.203Z,17.93
2019-03-23T08:09:19.951Z,18.77
2019-03-23T08:11:18.513Z,17.60
2019-03-23T08:13:25.525Z,18.70
2019-03-23T08:15:32.269Z,18.53
2019-03-23T08:17:39.863Z,19.63
2019-03-23T08:19:46.409Z,19.80
2019-03-23T08:21:55.155Z,19.30
2019-03-23T08:24:01.606Z,16.80
2019-03-23T08:26:08.335Z,18.83
2019-03-23T08:28:14.737Z,19.97
2019-03-23T08:30:23.146Z,21.50
2019-03-23T08:32:30.583Z,18.57
2019-03-23T08:34:37.105Z,19.20
2019-03-23T08:36:44.136Z,18.17
2019-03-23T08:38:53.298Z,17.40
2019-03-23T08:41:07.622Z,18.87
2019-03-23T08:43:23.884Z,18.43
2019-03-23T08:48:01.263Z,19.40
2019-03-23T08:50:11.105Z,19.03
2019-03-23T08:52:19.924Z,19.83
2019-03-23T08:54:29.482Z,22.03
2019-03-23T08:56:37.463Z,20.70
2019-03-23T08:58:42.728Z,21.17
2019-03-23T09:00:49.261Z,20.67
2019-03-23T09:02:55.947Z,21.27
2019-03-23T09:05:02.819Z,21.33
2019-03-23T09:07:10.301Z,20.17
2019-03-23T09:09:17.071Z,23.30
2019-03-23T09:11:24.137Z,23.13
2019-03-23T09:13:40.272Z,21.77
2019-03-23T09:15:39.128Z,23.63
2019-03-23T09:17:45.496Z,22.87
2019-03-23T09:19:52.076Z,26.33
2019-03-23T09:21:58.583Z,26.57
2019-03-23T09:24:05.354Z,23.77
2019-03-23T09:26:13.779Z,26.23
2019-03-23T09:28:20.176Z,26.63
2019-03-23T09:30:27.254Z,27.20
2019-03-23T09:32:33.814Z,27.23
2019-03-23T09:34:41.500Z,26.47
2019-03-23T09:36:48.188Z,27.90
2019-03-23T09:38:54.640Z,27.33
2019-03-23T09:41:02.841Z,31.10
2019-03-23T09:43:09.421Z,31.60
2019-03-23T09:45:16.190Z,30.50
2019-03-23T09:47:23.580Z,38.47
2019-03-23T09:49:30.252Z,30.70
2019-03-23T09:51:37.039Z,36.17
2019-03-23T09:53:43.681Z,40.00
2019-03-23T09:55:50.457Z,36.73
2019-03-23T09:57:57.038Z,32.67
2019-03-23T10:00:04.822Z,30.60
2019-03-23T10:02:11.811Z,28.27
2019-03-23T10:04:19.492Z,30.33
2019-03-23T10:06:26.062Z,29.60
2019-03-23T10:08:32.701Z,27.90
2019-03-23T10:10:39.412Z,31.20
2019-03-23T10:12:46.091Z,26.33
2019-03-23T10:14:52.961Z,28.27
2019-03-23T10:16:59.504Z,28.43
2019-03-23T10:19:08.003Z,26.90
2019-03-23T10:21:14.397Z,27.27
2019-03-23T10:23:20.967Z,26.33
2019-03-23T10:25:27.660Z,27.23
2019-03-23T10:27:34.507Z,30.77
2019-03-23T10:29:42.381Z,29.47
2019-03-23T10:31:48.957Z,25.70
2019-03-23T10:33:55.531Z,25.73
2019-03-23T10:36:02.401Z,28.07
2019-03-23T10:38:08.761Z,27.47
2019-03-23T10:40:15.862Z,26.33
2019-03-23T10:42:22.510Z,25.40
2019-03-23T10:44:29.383Z,27.17
2019-03-23T10:46:37.092Z,26.37
2019-03-23T10:48:43.647Z,24.10
2019-03-23T10:50:50.421Z,27.37
2019-03-23T10:52:56.800Z,27.30
2019-03-23T10:55:03.452Z,31.20
2019-03-23T10:57:09.821Z,26.93
2019-03-23T10:59:16.391Z,29.23
2019-03-23T11:01:23.365Z,28.63
2019-03-23T11:03:29.808Z,30.20
2019-03-23T11:05:36.407Z,27.43
2019-03-23T11:07:44.525Z,27.43
2019-03-23T11:09:51.074Z,24.90
2019-03-23T11:11:58.052Z,28.43
2019-03-23T11:14:04.411Z,25.93
2019-03-23T11:16:11.281Z,26.97
2019-03-23T11:18:17.630Z,27.40
2019-03-23T11:20:24.014Z,25.57
2019-03-23T11:22:32.109Z,24.67
2019-03-23T11:24:38.591Z,26.07
2019-03-23T11:26:46.871Z,24.70
2019-03-23T11:28:53.250Z,24.70
2019-03-23T11:31:01.029Z,25.73
2019-03-23T11:33:09.401Z,25.53
2019-03-23T11:35:16.059Z,26.93
2019-03-23T11:37:22.797Z,25.37
2019-03-23T11:39:29.161Z,24.93
2019-03-23T11:41:36.653Z,24.87
2019-03-23T11:43:43.837Z,28.17
2019-03-23T11:45:50.511Z,24.70
2019-03-23T11:47:56.870Z,25.03
2019-03-23T11:50:03.931Z,24.23
2019-03-23T11:52:11.332Z,23.97
2019-03-23T11:54:22.597Z,25.57
2019-03-23T11:56:30.474Z,27.50
2019-03-23T11:58:37.990Z,26.27
2019-03-23T12:00:45.796Z,25.33
2019-03-23T12:02:54.714Z,21.43
2019-03-23T12:05:03.122Z,24.17
2019-03-23T12:07:10.106Z,24.40
2019-03-23T12:09:16.878Z,21.67
2019-03-23T12:11:23.839Z,22.50
2019-03-23T12:13:30.730Z,23.27
2019-03-23T12:15:38.111Z,23.33
2019-03-23T12:17:46.060Z,22.07
2019-03-23T12:19:52.462Z,22.23
2019-03-23T12:21:59.450Z,23.03
2019-03-23T12:24:06.471Z,22.03
2019-03-23T12:26:13.297Z,23.27
2019-03-23T12:28:20.153Z,24.40
2019-03-23T12:30:28.180Z,22.77
2019-03-23T12:32:34.657Z,23.13
2019-03-23T12:34:42.877Z,23.27
2019-03-23T12:36:49.392Z,21.93
2019-03-23T12:38:55.988Z,23.30
2019-03-23T12:41:14.304Z,22.73
2019-03-23T12:43:12.091Z,21.93
2019-03-23T12:45:20.097Z,22.80
2019-03-23T12:47:27.571Z,23.10
2019-03-23T12:49:34.252Z,22.43
2019-03-23T12:51:40.807Z,23.40
2019-03-23T12:53:47.299Z,21.77
2019-03-23T12:55:55.780Z,22.97
2019-03-23T12:58:03.898Z,23.87
2019-03-23T13:00:17.317Z,23.53
2019-03-23T13:02:24.302Z,23.50
2019-03-23T13:04:32.400Z,23.23
2019-03-23T13:06:39.070Z,23.57
2019-03-23T13:08:46.042Z,23.80
2019-03-23T13:10:52.607Z,24.23
2019-03-23T13:12:59.413Z,33.23
2019-03-23T13:15:09.548Z,26.37
2019-03-23T13:17:16.217Z,23.73
2019-03-23T13:19:23.500Z,23.90
2019-03-23T13:21:30.008Z,23.20
2019-03-23T13:23:36.648Z,24.27
2019-03-23T13:25:43.259Z,24.17
2019-03-23T13:27:51.354Z,23.80
2019-03-23T13:29:58.388Z,24.67
2019-03-23T13:32:04.951Z,24.30
2019-03-23T13:34:11.827Z,25.13
2019-03-23T13:36:20.140Z,26.03
2019-03-23T13:38:28.538Z,23.80
2019-03-23T13:40:35.498Z,25.03
2019-03-23T13:42:42.298Z,24.87
2019-03-23T13:44:48.960Z,23.03
2019-03-23T13:46:55.426Z,25.30
2019-03-23T13:49:01.894Z,24.53
2019-03-23T13:51:09.207Z,25.63
2019-03-23T13:53:16.262Z,23.97
2019-03-23T13:55:34.865Z,24.40
2019-03-23T13:57:41.686Z,24.70
2019-03-23T13:59:49.676Z,26.67
2019-03-23T14:01:57.886Z,26.23
2019-03-23T14:04:04.453Z,29.87
2019-03-23T14:06:11.641Z,27.93
2019-03-23T14:08:18.195Z,28.53
2019-03-23T14:10:27.971Z,24.87
2019-03-23T14:12:34.213Z,28.00
2019-03-23T14:14:41.171Z,27.93
2019-03-23T14:16:49.495Z,26.50
2019-03-23T14:18:56.462Z,27.90
2019-03-23T14:21:04.377Z,28.27
2019-03-23T14:23:11.453Z,28.83
2019-03-23T14:25:18.214Z,27.93
2019-03-23T14:27:25.099Z,28.20
2019-03-23T14:29:31.556Z,28.07
2019-03-23T14:31:39.440Z,28.77
2019-03-23T14:33:46.312Z,28.40
2019-03-23T14:35:55.968Z,29.53
2019-03-23T14:38:02.428Z,28.47
2019-03-23T14:40:12.307Z,27.00
2019-03-23T14:42:18.834Z,30.53
2019-03-23T14:44:25.606Z,30.53
2019-03-23T14:46:32.689Z,42.97
2019-03-23T14:48:39.476Z,29.77
2019-03-23T14:50:46.552Z,31.17
2019-03-23T14:52:53.238Z,30.40
2019-03-23T14:54:59.945Z,28.87
2019-03-23T14:57:06.744Z,33.60
2019-03-23T14:59:13.706Z,31.33
2019-03-23T15:01:20.743Z,33.23
2019-03-23T15:03:28.852Z,31.50
2019-03-23T15:05:36.131Z,36.43
2019-03-23T15:07:43.500Z,33.70
2019-03-23T15:09:50.421Z,34.80
2019-03-23T15:11:58.161Z,33.63
2019-03-23T15:14:05.003Z,33.77
2019-03-23T15:16:12.147Z,33.83
2019-03-23T15:18:19.067Z,40.43
2019-03-23T15:20:25.907Z,34.97
2019-03-23T15:22:33.154Z,40.80
2019-03-23T15:24:39.730Z,31.93
2019-03-23T15:26:46.956Z,32.27
2019-03-23T15:28:53.690Z,29.30
2019-03-23T15:31:00.439Z,31.37
2019-03-23T15:33:09.074Z,30.93
2019-03-23T15:35:15.947Z,29.03
2019-03-23T15:37:22.707Z,30.93
2019-03-23T15:39:29.383Z,29.43
2019-03-23T15:41:36.213Z,28.80
2019-03-23T15:43:43.236Z,27.00
2019-03-23T15:45:49.991Z,29.33
2019-03-23T15:47:56.798Z,28.87
2019-03-23T15:50:03.700Z,29.20
2019-03-23T15:52:10.789Z,28.43
2019-03-23T15:54:20.130Z,37.33
2019-03-23T15:56:27.238Z,30.70
2019-03-23T15:58:33.877Z,29.13
2019-03-23T16:00:40.813Z,29.00
2019-03-23T16:02:51.025Z,32.03
2019-03-23T16:04:58.134Z,26.97
2019-03-23T16:07:04.848Z,32.23
2019-03-23T16:09:16.640Z,27.10
2019-03-23T16:11:23.948Z,28.43
2019-03-23T16:13:31.050Z,28.13
2019-03-23T16:15:40.867Z,33.23
2019-03-23T16:17:48.068Z,34.60
2019-03-23T16:19:54.969Z,31.93
2019-03-23T16:22:02.174Z,28.17
2019-03-23T16:24:09.866Z,29.00
2019-03-23T16:26:18.190Z,29.13
2019-03-23T16:28:25.014Z,24.50
2019-03-23T16:30:34.372Z,27.77
2019-03-23T16:32:41.351Z,26.93
2019-03-23T16:34:48.262Z,27.37
2019-03-23T16:36:56.983Z,30.17
2019-03-23T16:39:06.529Z,25.97
2019-03-23T16:41:13.726Z,25.27
2019-03-23T16:43:21.023Z,25.73
2019-03-23T16:45:29.162Z,26.27
2019-03-23T16:47:37.304Z,44.30
2019-03-23T16:49:44.423Z,36.47
2019-03-23T16:51:51.683Z,32.40
2019-03-23T16:53:58.845Z,28.30
2019-03-23T16:56:05.837Z,24.87
2019-03-23T16:58:16.269Z,26.53
2019-03-23T17:00:26.035Z,23.33
2019-03-23T17:02:33.518Z,23.83
2019-03-23T17:04:40.921Z,20.27
2019-03-23T17:06:48.391Z,20.17
2019-03-23T17:08:55.424Z,33.10
2019-03-23T17:11:02.404Z,20.80
2019-03-23T17:13:09.897Z,36.63
2019-03-23T17:15:17.186Z,23.73
2019-03-23T17:17:23.991Z,24.60
2019-03-23T17:19:31.008Z,18.37
2019-03-23T17:21:39.452Z,17.97
2019-03-23T17:23:46.719Z,21.73
2019-03-23T17:25:54.221Z,23.40
2019-03-23T17:28:01.262Z,23.33
2019-03-23T17:30:10.170Z,30.10
2019-03-23T17:32:17.305Z,30.83
2019-03-23T17:34:24.636Z,33.17
2019-03-23T17:36:33.526Z,27.67
2019-03-23T17:38:40.390Z,32.03
2019-03-23T17:40:47.963Z,32.33
2019-03-23T17:43:05.374Z,27.23
2019-03-23T17:45:06.709Z,35.53
2019-03-23T17:47:14.553Z,21.80
2019-03-23T17:49:21.724Z,30.73
2019-03-23T17:51:28.874Z,32.13
2019-03-23T17:53:37.432Z,29.07
2019-03-23T17:55:44.634Z,35.70
2019-03-23T17:57:51.975Z,29.00
2019-03-23T17:59:58.893Z,34.23
2019-03-23T18:02:06.143Z,31.53
2019-03-23T18:04:14.035Z,32.37
2019-03-23T18:06:21.211Z,26.47
2019-03-23T18:08:28.326Z,37.13
2019-03-23T18:10:35.724Z,34.63
2019-03-23T18:12:42.704Z,33.60
2019-03-23T18:14:49.623Z,28.00
2019-03-23T18:16:56.642Z,31.50
2019-03-23T18:19:03.773Z,29.67
2019-03-23T18:21:10.661Z,27.80
2019-03-23T18:23:18.924Z,30.43
2019-03-23T18:25:26.434Z,31.17
2019-03-23T18:27:33.974Z,24.77
2019-03-23T18:29:40.904Z,19.07
2019-03-23T18:31:48.054Z,20.47
2019-03-23T18:33:55.409Z,19.30
2019-03-23T18:36:03.323Z,18.43
2019-03-23T18:38:10.691Z,18.10
2019-03-23T18:40:18.105Z,17.70
2019-03-23T18:42:25.193Z,16.57
2019-03-23T18:44:32.341Z,15.10
2019-03-23T18:46:39.996Z,14.70
2019-03-23T18:48:48.073Z,12.03
2019-03-23T18:50:55.419Z,13.03
2019-03-23T18:53:05.040Z,14.47
2019-03-23T18:55:12.189Z,9.60
2019-03-23T18:57:19.417Z,12.27
2019-03-23T18:59:27.253Z,13.47
2019-03-23T19:01:34.168Z,13.10
2019-03-23T19:03:41.473Z,15.30
2019-03-23T19:05:48.529Z,13.50
2019-03-23T19:07:55.562Z,11.23
2019-03-23T19:10:02.910Z,12.77
2019-03-23T19:12:10.104Z,15.60
2019-03-23T19:14:17.001Z,12.57
2019-03-23T19:16:24.045Z,9.93
2019-03-23T19:18:31.441Z,11.27
2019-03-23T19:20:39.274Z,9.27
2019-03-23T19:22:45.980Z,8.77
2019-03-23T19:25:01.545Z,9.00
2019-03-23T19:27:08.639Z,8.57
2019-03-23T19:29:16.891Z,9.40
2019-03-23T19:31:25.268Z,8.17
2019-03-23T19:33:32.643Z,8.73
2019-03-23T19:35:39.894Z,7.73
2019-03-23T19:37:46.721Z,7.30
2019-03-23T19:39:53.642Z,7.37
2019-03-23T19:42:00.537Z,8.20
2019-03-23T19:44:09.681Z,8.47
2019-03-23T19:46:16.833Z,9.87
2019-03-23T19:48:23.747Z,11.50
2019-03-23T19:50:30.543Z,9.40
2019-03-23T19:52:38.356Z,9.00
2019-03-23T19:54:46.253Z,11.40
2019-03-23T19:56:53.004Z,10.73
2019-03-23T19:59:00.001Z,9.87
2019-03-23T20:01:07.442Z,9.13
2019-03-23T20:03:14.771Z,9.90
2019-03-23T20:05:23.411Z,7.77
2019-03-23T20:07:33.437Z,8.80
2019-03-23T20:09:42.410Z,9.17
2019-03-23T20:11:52.434Z,7.13
2019-03-23T20:14:03.033Z,9.13
2019-03-23T20:16:10.193Z,9.20
2019-03-23T20:18:17.972Z,10.30
2019-03-23T20:20:26.392Z,10.63
2019-03-23T20:22:34.492Z,10.07
2019-03-23T20:24:43.662Z,10.40
2019-03-23T20:26:51.248Z,11.33
2019-03-23T20:28:59.434Z,10.90
2019-03-23T20:31:06.703Z,11.57
2019-03-23T20:33:19.400Z,10.37
2019-03-23T20:35:46.512Z,11.47
2019-03-23T20:37:56.323Z,11.93
2019-03-23T20:40:06.824Z,12.10
2019-03-23T20:42:14.277Z,11.33
2019-03-23T20:44:22.446Z,12.07
2019-03-23T20:46:29.398Z,13.13
2019-03-23T20:48:38.392Z,11.13
2019-03-23T20:50:45.888Z,12.07
2019-03-23T20:52:53.571Z,13.17
2019-03-23T20:55:00.492Z,12.13
2019-03-23T20:57:07.594Z,10.73
2019-03-23T20:59:14.594Z,13.07
2019-03-23T21:01:21.651Z,12.17
2019-03-23T21:03:28.207Z,12.73
2019-03-23T21:05:35.590Z,12.90
2019-03-23T21:07:42.811Z,9.80
2019-03-23T21:09:49.672Z,11.50
2019-03-23T21:11:56.532Z,12.87
2019-03-23T21:14:04.113Z,12.80
2019-03-23T21:16:12.070Z,9.13
2019-03-23T21:18:19.300Z,11.00
2019-03-23T21:20:26.471Z,12.93
2019-03-23T21:22:34.727Z,12.00
2019-03-23T21:24:41.689Z,11.07
2019-03-23T21:26:48.634Z,13.00
2019-03-23T21:28:55.468Z,9.80
2019-03-23T21:31:05.175Z,12.77
2019-03-23T21:33:13.955Z,12.73
2019-03-23T21:35:21.031Z,12.23
2019-03-23T21:37:28.118Z,12.03
2019-03-23T21:39:35.932Z,12.67
2019-03-23T21:41:43.051Z,11.00
2019-03-23T21:43:50.632Z,11.40
2019-03-23T21:45:58.470Z,11.57
2019-03-23T21:48:05.626Z,11.20
2019-03-23T21:50:13.314Z,11.60
2019-03-23T21:52:20.971Z,11.93
2019-03-23T21:54:28.112Z,12.00
2019-03-23T21:56:35.093Z,12.63
2019-03-23T21:58:43.732Z,10.70
2019-03-23T22:00:50.952Z,12.40
2019-03-23T22:03:00.052Z,12.63
2019-03-23T22:05:09.831Z,12.07
2019-03-23T22:07:18.111Z,11.00
2019-03-23T22:09:25.051Z,12.50
2019-03-23T22:11:32.111Z,11.27
2019-03-23T22:13:38.854Z,12.93
2019-03-23T22:15:47.406Z,10.43
2019-03-23T22:17:55.000Z,10.77
2019-03-23T22:20:01.921Z,10.60
2019-03-23T22:22:08.936Z,11.40
2019-03-23T22:24:15.697Z,13.10
2019-03-23T22:26:22.052Z,11.37
2019-03-23T22:28:28.988Z,11.60
2019-03-23T22:30:35.269Z,11.63
2019-03-23T22:32:42.241Z,11.23
2019-03-23T22:34:49.422Z,11.37
2019-03-23T22:36:58.536Z,12.10
2019-03-23T22:39:07.189Z,10.63
2019-03-23T22:41:15.194Z,10.70
2019-03-23T22:43:25.801Z,10.93
2019-03-23T22:45:35.862Z,11.00
2019-03-23T22:47:43.692Z,11.17
2019-03-23T22:49:50.323Z,12.23
2019-03-23T22:51:56.791Z,12.17
2019-03-23T22:54:03.898Z,11.83
2019-03-23T22:56:10.776Z,11.40
2019-03-23T22:58:19.489Z,11.50
2019-03-23T23:00:27.668Z,11.17
2019-03-23T23:02:35.959Z,13.07
2019-03-23T23:04:42.561Z,12.70
2019-03-23T23:06:49.228Z,11.23
2019-03-23T23:08:55.603Z,12.10
2019-03-23T23:11:02.252Z,11.13
2019-03-23T23:13:10.439Z,11.57
2019-03-23T23:15:17.140Z,13.57
2019-03-23T23:17:24.111Z,11.50
2019-03-23T23:19:30.472Z,12.30
2019-03-23T23:21:38.381Z,11.27
2019-03-23T23:23:44.841Z,12.90
2019-03-23T23:25:51.701Z,12.93
2019-03-23T23:27:58.795Z,12.97
2019-03-23T23:30:08.536Z,13.70
2019-03-23T23:32:15.411Z,12.93
2019-03-23T23:34:22.819Z,11.50
2019-03-23T23:36:35.461Z,13.10
2019-03-23T23:38:43.921Z,12.20
2019-03-23T23:40:50.704Z,13.53
2019-03-23T23:42:57.271Z,12.00
2019-03-23T23:45:14.842Z,12.17
2019-03-23T23:47:17.448Z,13.13
2019-03-23T23:49:25.059Z,12.70
2019-03-23T23:51:32.849Z,12.87
2019-03-23T23:53:39.608Z,13.03
2019-03-23T23:55:45.991Z,13.70
2019-03-23T23:57:53.782Z,11.80
